Terminal Aerodrome Forecast
Issued by NWS

Home | Current Version | Previous Version | Graphics & Text | Print | Product List | Glossary On
Versions: 1 2 3 4 5 6 7 8 9 10 11 12 13 14 15 16 17 18 19 20 21 22
195
FTUS43 KBIS 181726
TAFDIK
TAF
KDIK 181726Z 1818/1918 02012KT 2SM -RA BR OVC008
     FM182200 03013KT P6SM VCSH OVC010
     FM190500 03013KT P6SM OVC060
     FM191300 03011KT P6SM SCT200=

USA.gov is the U.S. government's official web portal to all federal, state and local government web resources and services.